Time;durP1;ratioP1;P1;durP2;ratioP2;P2;SDS_P1;SDS_P2;PMS_P1;PMS_P2;Temp;Humidity;BMP_temperature;BMP_pressure;BME280_temperature;BME280_humidity;BME280_pressure;Samples;Min_cycle;Max_cycle;Signal;HPM_P1;HPM_P2
2022/06/15 00:02:22;;;;;;;;;;;;;;;16.36;56.14;96603.06;5095776;28;19961;-71
2022/06/15 00:04:48;;;;;;;;;;;;;;;16.30;56.63;96606.72;5095906;28;19967;-72
2022/06/15 00:07:15;;;;;;;;;;;;;;;16.23;56.65;96601.59;5094260;28;19971;-72
2022/06/15 00:09:40;;;;;;;;;;;;;;;16.17;56.79;96598.13;5095412;28;19969;-72
2022/06/15 00:12:08;;;;;;;;;;;;;;;16.15;56.96;96591.47;5095450;28;19999;-71
2022/06/15 00:14:34;;;;;;;;;;;;;;;16.12;56.61;96590.09;5095240;28;19969;-71
2022/06/15 00:17:00;;;;;;;;;;;;;;;16.06;56.78;96599.03;5095389;28;19961;-71
2022/06/15 00:19:26;;;;;;;;;;;;;;;16.01;57.22;96594.50;5095381;28;19974;-72
2022/06/15 00:21:52;;;;;;;;;;;;;;;15.98;57.38;96591.53;5095180;28;19969;-72
2022/06/15 00:24:18;;;;;;;;;;;;;;;15.94;57.03;96590.47;5077416;28;20318;-72
2022/06/15 00:26:44;;;;;;;;;;;;;;;15.90;57.55;96592.00;5095006;28;20018;-72
2022/06/15 00:29:10;;;;;;;;;;;;;;;15.87;57.78;96595.13;5095228;28;20459;-72
2022/06/15 00:31:36;;;;;;;;;;;;;;;15.82;57.66;96580.81;5095183;28;19979;-72
2022/06/15 00:34:03;;;;;;;;;;;;;;;15.81;58.02;96579.22;5095177;28;20019;-72
2022/06/15 00:36:29;;;;;;;;;;;;;;;15.77;57.60;96570.19;5094114;28;19968;-72
2022/06/15 00:38:56;;;;;;;;;;;;;;;15.77;58.17;96566.72;5095092;28;19961;-72
2022/06/15 00:41:28;;;;;;;;;;;;;;;15.74;58.06;96575.97;5095071;28;19965;-72
2022/06/15 00:44:02;;;;;;;;;;;;;;;15.72;58.22;96569.31;5094907;28;19956;-71
2022/06/15 00:46:28;;;;;;;;;;;;;;;15.68;57.94;96562.91;5094807;28;19968;-73
2022/06/15 00:48:56;;;;;;;;;;;;;;;15.66;58.04;96562.34;5094550;28;20003;-72
2022/06/15 00:51:23;;;;;;;;;;;;;;;15.62;58.39;96554.94;5094494;28;19962;-72
2022/06/15 00:53:49;;;;;;;;;;;;;;;15.57;58.32;96552.22;5095170;28;19961;-72
2022/06/15 00:56:35;;;;;;;;;;;;;;;15.55;58.60;96561.44;5080856;28;20142;-72
2022/06/15 00:59:12;;;;;;;;;;;;;;;15.50;58.58;96554.25;5094445;28;19954;-72
2022/06/15 01:01:39;;;;;;;;;;;;;;;15.47;58.61;96560.00;5094881;28;19965;-72
2022/06/15 01:04:05;;;;;;;;;;;;;;;15.42;58.61;96552.81;5094891;28;19968;-72
2022/06/15 01:06:34;;;;;;;;;;;;;;;15.37;59.04;96549.31;5093658;28;20429;-72
2022/06/15 01:09:14;;;;;;;;;;;;;;;15.33;59.24;96543.75;5094596;28;19958;-72
2022/06/15 01:11:40;;;;;;;;;;;;;;;15.30;59.96;96546.06;5094241;28;19958;-72
2022/06/15 01:14:16;;;;;;;;;;;;;;;15.26;59.62;96537.03;5094417;28;20013;-72
2022/06/15 01:16:52;;;;;;;;;;;;;;;15.21;59.30;96538.56;5094469;28;20440;-71
2022/06/15 01:19:37;;;;;;;;;;;;;;;15.17;59.98;96548.03;5094500;28;19963;-71
2022/06/15 01:22:15;;;;;;;;;;;;;;;15.15;60.12;96541.38;5079167;28;20434;-72
2022/06/15 01:25:06;;;;;;;;;;;;;;;15.13;60.13;96546.13;5094372;28;19958;-71
2022/06/15 01:27:32;;;;;;;;;;;;;;;15.10;60.02;96536.03;5090264;28;20482;-71
2022/06/15 01:30:17;;;;;;;;;;;;;;;15.08;60.50;96548.69;5093921;28;19961;-71
2022/06/15 01:32:46;;;;;;;;;;;;;;;15.04;60.32;96544.94;5080591;28;19978;-71
2022/06/15 01:35:15;;;;;;;;;;;;;;;15.00;60.35;96541.97;5094004;28;19957;-71
2022/06/15 01:38:21;;;;;;;;;;;;;;;14.98;60.74;96544.06;5094079;28;20415;-71
2022/06/15 01:40:49;;;;;;;;;;;;;;;14.93;60.50;96538.69;5085118;28;19961;-71
2022/06/15 01:43:18;;;;;;;;;;;;;;;14.90;60.68;96540.00;5094306;28;20446;-71
2022/06/15 01:45:45;;;;;;;;;;;;;;;14.85;60.96;96545.22;5093740;28;19957;-71
2022/06/15 01:48:12;;;;;;;;;;;;;;;14.81;60.64;96539.59;5093584;28;19970;-72
2022/06/15 01:50:39;;;;;;;;;;;;;;;14.77;61.18;96538.50;5093526;28;20315;-72
2022/06/15 01:53:11;;;;;;;;;;;;;;;14.75;60.72;96534.50;5077470;28;19964;-72
2022/06/15 01:55:40;;;;;;;;;;;;;;;14.73;61.38;96540.00;5093077;28;19954;-72
2022/06/15 01:58:08;;;;;;;;;;;;;;;14.69;61.13;96532.81;5093593;28;19960;-72
2022/06/15 02:00:34;;;;;;;;;;;;;;;14.65;61.20;96527.22;5093838;28;19957;-72
2022/06/15 02:03:05;;;;;;;;;;;;;;;14.63;61.23;96533.78;5093896;28;19966;-72
2022/06/15 02:05:44;;;;;;;;;;;;;;;14.59;61.18;96525.53;5092531;28;19960;-72
2022/06/15 02:08:16;;;;;;;;;;;;;;;14.57;60.93;96525.00;5093423;28;20326;-72
2022/06/15 02:10:48;;;;;;;;;;;;;;;14.55;61.15;96522.63;5093429;28;19957;-72
2022/06/15 02:13:34;;;;;;;;;;;;;;;14.54;61.22;96522.81;5093791;28;19995;-71
2022/06/15 02:16:03;;;;;;;;;;;;;;;14.51;61.30;96520.63;5078209;28;19956;-71
2022/06/15 02:18:32;;;;;;;;;;;;;;;14.47;61.61;96511.59;5093401;28;19960;-72
2022/06/15 02:21:04;;;;;;;;;;;;;;;14.43;61.68;96506.03;5093895;28;19952;-72
2022/06/15 02:23:31;;;;;;;;;;;;;;;14.39;61.88;96510.19;5093663;28;19960;-72
2022/06/15 02:25:58;;;;;;;;;;;;;;;14.35;62.17;96507.22;5075333;28;20328;-72
2022/06/15 02:28:28;;;;;;;;;;;;;;;14.33;62.22;96506.66;5093405;28;19975;-72
2022/06/15 02:30:54;;;;;;;;;;;;;;;14.31;61.98;96506.09;5093231;28;19987;-72
2022/06/15 02:33:25;;;;;;;;;;;;;;;14.28;61.83;96500.50;5092403;28;19957;-72
2022/06/15 02:35:51;;;;;;;;;;;;;;;14.27;61.67;96507.63;5093600;28;19952;-71
2022/06/15 02:38:17;;;;;;;;;;;;;;;14.27;62.08;96510.25;5093434;28;19957;-72
2022/06/15 02:40:43;;;;;;;;;;;;;;;14.26;61.77;96513.94;5093371;28;20008;-71
2022/06/15 02:43:10;;;;;;;;;;;;;;;14.24;62.12;96515.19;5093273;28;19967;-72
2022/06/15 02:45:38;;;;;;;;;;;;;;;14.21;62.45;96519.13;5093271;28;19957;-71
2022/06/15 02:48:06;;;;;;;;;;;;;;;14.18;62.25;96517.75;5078679;28;20338;-71
2022/06/15 02:50:37;;;;;;;;;;;;;;;14.16;61.84;96514.56;5093339;28;19957;-72
2022/06/15 02:53:08;;;;;;;;;;;;;;;14.13;62.22;96517.69;5093125;28;19958;-71
2022/06/15 02:55:35;;;;;;;;;;;;;;;14.10;62.63;96518.16;5093017;28;19961;-72
2022/06/15 02:58:11;;;;;;;;;;;;;;;14.10;62.87;96518.16;5093119;28;19961;-72
2022/06/15 03:00:37;;;;;;;;;;;;;;;14.08;62.51;96512.31;5096296;28;19968;-71
2022/06/15 03:03:03;;;;;;;;;;;;;;;14.07;62.67;96521.28;5096841;28;19960;-72
2022/06/15 03:05:29;;;;;;;;;;;;;;;14.04;62.48;96516.47;5095821;28;20407;-72
2022/06/15 03:07:55;;;;;;;;;;;;;;;14.01;62.80;96523.03;5096872;28;19971;-72
2022/06/15 03:10:21;;;;;;;;;;;;;;;13.99;62.91;96519.81;5096699;28;20028;-72
2022/06/15 03:12:47;;;;;;;;;;;;;;;13.97;62.59;96511.34;5096783;28;19955;-72
2022/06/15 03:15:14;;;;;;;;;;;;;;;13.96;62.52;96522.94;5096934;28;20350;-71
2022/06/15 03:17:40;;;;;;;;;;;;;;;13.94;62.86;96526.84;5096041;28;19953;-72
2022/06/15 03:20:06;;;;;;;;;;;;;;;13.89;63.33;96524.91;5096587;28;20328;-72
2022/06/15 03:22:36;;;;;;;;;;;;;;;13.87;63.31;96519.06;5095839;28;19961;-72
2022/06/15 03:25:02;;;;;;;;;;;;;;;13.84;63.23;96524.84;5095696;28;19964;-72
2022/06/15 03:27:28;;;;;;;;;;;;;;;13.82;63.00;96519.00;5096355;28;19982;-72
2022/06/15 03:29:54;;;;;;;;;;;;;;;13.79;63.59;96520.25;5096181;28;19955;-72
2022/06/15 03:32:20;;;;;;;;;;;;;;;13.77;63.51;96518.88;5096192;28;19980;-71
2022/06/15 03:34:46;;;;;;;;;;;;;;;13.75;63.92;96513.06;5096381;28;19967;-71
2022/06/15 03:37:12;;;;;;;;;;;;;;;13.74;63.84;96522.00;5096112;28;19968;-72
2022/06/15 03:39:38;;;;;;;;;;;;;;;13.71;63.84;96518.03;5096358;28;19954;-72
2022/06/15 03:42:08;;;;;;;;;;;;;;;13.70;64.31;96526.94;5096282;28;20080;-71
2022/06/15 03:44:34;;;;;;;;;;;;;;;13.68;64.03;96520.31;5095954;28;19962;-71
2022/06/15 03:47:01;;;;;;;;;;;;;;;13.67;63.78;96519.53;5096150;28;20318;-72
2022/06/15 03:49:27;;;;;;;;;;;;;;;13.66;63.37;96520.53;5096179;28;19960;-71
2022/06/15 03:51:53;;;;;;;;;;;;;;;13.66;63.46;96517.13;5095793;28;20006;-72
2022/06/15 03:54:19;;;;;;;;;;;;;;;13.65;63.85;96526.03;5095924;28;20449;-71
2022/06/15 03:56:47;;;;;;;;;;;;;;;13.62;63.96;96522.03;5095805;28;19965;-71
2022/06/15 03:59:13;;;;;;;;;;;;;;;13.63;63.35;96525.47;5095891;28;19954;-71
2022/06/15 04:01:45;;;;;;;;;;;;;;;13.63;63.57;96520.22;5095926;28;19960;-71
2022/06/15 04:04:11;;;;;;;;;;;;;;;13.64;63.79;96521.81;5091867;28;19971;-73
2022/06/15 04:06:37;;;;;;;;;;;;;;;13.63;63.59;96525.47;5095526;28;19956;-72
2022/06/15 04:09:03;;;;;;;;;;;;;;;13.63;63.64;96520.22;5095965;28;19974;-72
2022/06/15 04:14:13;;;;;;;;;;;;;;;13.71;64.11;96525.09;5084392;28;19963;-72
2022/06/15 04:16:39;;;;;;;;;;;;;;;13.77;63.82;96529.44;5095619;28;20453;-71
2022/06/15 04:19:07;;;;;;;;;;;;;;;13.84;64.12;96531.91;5095487;28;20470;-72
2022/06/15 04:21:33;;;;;;;;;;;;;;;13.90;64.33;96523.91;5095219;28;19959;-72
2022/06/15 04:23:59;;;;;;;;;;;;;;;13.98;64.30;96534.06;5095415;28;20339;-72
2022/06/15 04:26:24;;;;;;;;;;;;;;;14.03;63.65;96525.44;5095621;28;20060;-71
2022/06/15 04:28:50;;;;;;;;;;;;;;;14.08;64.12;96533.41;5095043;28;20012;-71
2022/06/15 04:31:16;;;;;;;;;;;;;;;14.10;63.72;96528.69;5095018;28;20326;-72
2022/06/15 04:33:42;;;;;;;;;;;;;;;14.13;64.36;96527.41;5094586;28;20046;-72
2022/06/15 04:36:12;;;;;;;;;;;;;;;14.15;63.99;96522.72;5095766;28;19962;-71
2022/06/15 04:38:37;;;;;;;;;;;;;;;14.11;63.79;96521.59;5095068;28;19957;-71
2022/06/15 04:41:05;;;;;;;;;;;;;;;14.12;64.01;96524.00;5094455;28;20216;-71
2022/06/15 04:43:31;;;;;;;;;;;;;;;14.24;64.05;96528.38;5095341;28;19967;-71
2022/06/15 04:45:57;;;;;;;;;;;;;;;14.35;63.75;96524.91;5095078;28;19972;-72
2022/06/15 04:48:23;;;;;;;;;;;;;;;14.49;63.91;96520.09;5094968;28;19975;-71
2022/06/15 04:50:49;;;;;;;;;;;;;;;14.65;63.64;96521.16;5094683;28;19972;-72
2022/06/15 04:53:30;;;;;;;;;;;;;;;14.76;63.14;96522.88;5072816;28;19960;-72
2022/06/15 04:55:56;;;;;;;;;;;;;;;14.88;63.20;96526.22;5091668;28;19952;-71
2022/06/15 04:58:22;;;;;;;;;;;;;;;15.03;62.36;96517.72;5094722;28;20001;-72
2022/06/15 05:00:48;;;;;;;;;;;;;;;15.14;60.89;96506.25;5094378;28;19953;-72
2022/06/15 05:03:14;;;;;;;;;;;;;;;15.15;60.70;96505.19;5094589;28;19985;-72
2022/06/15 05:05:39;;;;;;;;;;;;;;;15.29;61.51;96512.78;5094626;28;20487;-72
2022/06/15 05:08:06;;;;;;;;;;;;;;;15.45;61.19;96514.53;5094768;28;19975;-72
2022/06/15 05:10:31;;;;;;;;;;;;;;;15.70;61.33;96516.66;5094466;28;19950;-71
2022/06/15 05:12:57;;;;;;;;;;;;;;;15.85;59.67;96494.88;5094460;28;19956;-71
2022/06/15 05:15:23;;;;;;;;;;;;;;;15.88;60.29;96507.63;5094173;28;19956;-71
2022/06/15 05:17:50;;;;;;;;;;;;;;;16.02;60.23;96500.88;5094690;28;19951;-71
2022/06/15 05:20:16;;;;;;;;;;;;;;;16.27;59.25;96491.53;5094156;28;19951;-72
2022/06/15 05:22:42;;;;;;;;;;;;;;;16.48;58.49;96481.91;5093022;28;19959;-71
2022/06/15 05:25:09;;;;;;;;;;;;;;;16.69;58.17;96480.19;5094092;28;19951;-71
2022/06/15 05:27:36;;;;;;;;;;;;;;;16.92;58.01;96479.03;5093913;28;19972;-72
2022/06/15 05:30:03;;;;;;;;;;;;;;;17.21;57.31;96470.69;5093948;28;20402;-72
2022/06/15 05:32:29;;;;;;;;;;;;;;;17.53;57.18;96462.56;5093715;28;19973;-71
2022/06/15 05:34:55;;;;;;;;;;;;;;;17.85;56.11;96457.09;5093956;28;19964;-72
2022/06/15 05:37:22;;;;;;;;;;;;;;;18.19;55.95;96448.59;5075820;28;19958;-71
2022/06/15 05:39:48;;;;;;;;;;;;;;;18.51;54.95;96444.84;5094199;28;19953;-71
2022/06/15 05:42:15;;;;;;;;;;;;;;;18.80;54.41;96446.94;5093776;28;19958;-71
2022/06/15 05:47:13;;;;;;;;;;;;;;;19.19;53.66;96448.91;5093736;28;19954;-72
2022/06/15 05:49:39;;;;;;;;;;;;;;;19.43;53.46;96447.22;5093925;28;19990;-72
2022/06/15 05:52:05;;;;;;;;;;;;;;;19.66;52.52;96443.09;5092771;28;19961;-72
2022/06/15 05:54:31;;;;;;;;;;;;;;;19.86;52.09;96446.69;5093859;28;19960;-72
2022/06/15 05:56:57;;;;;;;;;;;;;;;19.99;51.68;96445.28;5093714;28;19961;-72
2022/06/15 05:59:23;;;;;;;;;;;;;;;20.17;51.47;96441.16;5093938;28;20048;-73
2022/06/15 06:01:49;;;;;;;;;;;;;;;20.30;51.33;96458.34;5094100;28;19982;-72
2022/06/15 06:04:16;;;;;;;;;;;;;;;20.34;50.20;96451.38;5093675;28;19965;-72
2022/06/15 06:06:42;;;;;;;;;;;;;;;20.32;50.15;96461.53;5075683;28;19959;-72
2022/06/15 06:09:09;;;;;;;;;;;;;;;20.21;49.90;96464.28;5093575;28;19973;-73
2022/06/15 06:11:36;;;;;;;;;;;;;;;20.18;50.44;96469.34;5075917;28;19965;-72
2022/06/15 06:14:02;;;;;;;;;;;;;;;20.21;51.04;96474.13;5093496;28;19958;-73
2022/06/15 06:16:28;;;;;;;;;;;;;;;20.26;50.54;96477.56;5084243;28;20403;-72
2022/06/15 06:18:54;;;;;;;;;;;;;;;20.36;50.90;96468.66;5093794;28;19960;-72
2022/06/15 06:21:20;;;;;;;;;;;;;;;20.56;51.21;96475.69;5093443;28;19964;-72
2022/06/15 06:23:46;;;;;;;;;;;;;;;20.92;49.88;96471.91;5093481;28;19950;-72
2022/06/15 06:26:19;;;;;;;;;;;;;;;21.14;49.78;96463.38;5093628;28;20007;-72
2022/06/15 06:28:45;;;;;;;;;;;;;;;21.31;49.95;96470.91;5093689;28;20361;-72
2022/06/15 06:31:11;;;;;;;;;;;;;;;21.47;48.54;96453.66;5093311;28;19987;-72
2022/06/15 06:33:37;;;;;;;;;;;;;;;21.38;48.20;96468.69;5093681;28;19967;-72
2022/06/15 06:36:04;;;;;;;;;;;;;;;21.40;49.30;96466.53;5097635;28;19964;-72
2022/06/15 06:39:01;;;;;;;;;;;;;;;21.42;47.88;96464.41;5078090;28;19953;-72
2022/06/15 06:41:28;;;;;;;;;;;;;;;21.37;47.89;96467.09;5097448;28;20321;-73
2022/06/15 06:43:54;;;;;;;;;;;;;;;21.29;48.34;96477.34;5097270;28;19977;-72
2022/06/15 06:46:20;;;;;;;;;;;;;;;21.22;48.64;96476.09;5097208;28;19961;-72
2022/06/15 06:48:46;;;;;;;;;;;;;;;21.20;48.31;96480.91;5079154;28;19979;-72
2022/06/15 06:51:12;;;;;;;;;;;;;;;21.21;47.52;96483.31;5096172;28;20430;-71
2022/06/15 06:53:38;;;;;;;;;;;;;;;21.15;48.15;96481.78;5096958;28;20365;-72
2022/06/15 06:56:05;;;;;;;;;;;;;;;21.34;48.64;96484.47;5096964;28;19960;-72
2022/06/15 06:58:31;;;;;;;;;;;;;;;21.56;48.37;96475.94;5097045;28;20324;-72
2022/06/15 07:01:03;;;;;;;;;;;;;;;21.65;47.07;96470.78;5097314;28;20326;-72
2022/06/15 07:03:29;;;;;;;;;;;;;;;21.80;47.71;96481.22;5095719;28;19959;-72
2022/06/15 07:06:02;;;;;;;;;;;;;;;21.98;46.84;96463.59;5096756;28;19968;-72
2022/06/15 07:08:28;;;;;;;;;;;;;;;22.21;45.27;96458.44;5096806;28;20382;-72
2022/06/15 07:10:55;;;;;;;;;;;;;;;22.34;45.26;96471.06;5096655;28;19961;-72
2022/06/15 07:13:21;;;;;;;;;;;;;;;22.42;44.56;96462.38;5096078;28;19953;-72
2022/06/15 07:15:47;;;;;;;;;;;;;;;22.58;45.18;96467.47;5096085;28;19970;-72
2022/06/15 07:18:13;;;;;;;;;;;;;;;22.69;43.51;96463.53;5096755;28;20327;-73
2022/06/15 07:20:39;;;;;;;;;;;;;;;22.69;43.65;96460.84;5096533;28;19966;-73
2022/06/15 07:23:05;;;;;;;;;;;;;;;22.70;45.28;96473.16;5083637;28;19965;-72
2022/06/15 07:25:40;;;;;;;;;;;;;;;22.65;45.05;96473.22;5085269;28;20413;-72
2022/06/15 07:28:06;;;;;;;;;;;;;;;22.79;43.97;96474.03;5096360;28;20071;-73
2022/06/15 07:30:32;;;;;;;;;;;;;;;23.02;44.56;96474.19;5096588;28;20344;-73
2022/06/15 07:32:58;;;;;;;;;;;;;;;23.25;43.15;96465.16;5096343;28;19966;-73
2022/06/15 07:35:26;;;;;;;;;;;;;;;23.37;43.81;96479.91;5096384;28;19967;-72
2022/06/15 07:37:52;;;;;;;;;;;;;;;23.54;44.20;96479.28;5095133;28;20319;-73
2022/06/15 07:40:22;;;;;;;;;;;;;;;23.54;41.81;96460.53;5095428;28;19959;-72
2022/06/15 07:42:49;;;;;;;;;;;;;;;23.51;43.33;96478.00;5096280;28;19965;-72
2022/06/15 07:45:16;;;;;;;;;;;;;;;23.44;42.62;96473.06;5095536;28;19965;-73
2022/06/15 07:50:27;;;;;;;;;;;;;;;23.53;42.95;96475.03;5095994;28;19957;-72
2022/06/15 07:52:53;;;;;;;;;;;;;;;23.71;42.28;96476.78;5095834;28;19975;-72
2022/06/15 07:55:21;;;;;;;;;;;;;;;23.96;43.67;96482.66;5095929;28;19953;-72
2022/06/15 07:57:47;;;;;;;;;;;;;;;23.94;42.34;96477.63;5095973;28;19953;-72
2022/06/15 08:00:14;;;;;;;;;;;;;;;24.03;42.04;96478.47;5095661;28;19956;-72
2022/06/15 08:02:41;;;;;;;;;;;;;;;23.99;40.02;96474.81;5095696;28;20410;-72
2022/06/15 08:05:07;;;;;;;;;;;;;;;24.00;43.24;96483.66;5096006;28;20298;-72
2022/06/15 08:07:34;;;;;;;;;;;;;;;23.98;42.03;96489.31;5095736;28;19960;-73
2022/06/15 08:10:00;;;;;;;;;;;;;;;24.01;42.18;96487.91;5095190;28;19971;-72
2022/06/15 08:12:27;;;;;;;;;;;;;;;24.03;42.28;96488.41;5095374;28;19957;-72
2022/06/15 08:14:58;;;;;;;;;;;;;;;24.22;42.93;96488.22;5077744;28;19959;-72
2022/06/15 08:17:29;;;;;;;;;;;;;;;24.44;42.01;96472.16;5095617;28;19957;-72
2022/06/15 08:20:00;;;;;;;;;;;;;;;24.54;41.58;96475.69;5077546;28;20331;-73
2022/06/15 08:22:26;;;;;;;;;;;;;;;24.62;41.54;96472.25;5095489;28;19968;-73
2022/06/15 08:24:52;;;;;;;;;;;;;;;24.68;40.58;96463.00;5092923;28;19981;-72
2022/06/15 08:27:20;;;;;;;;;;;;;;;24.77;41.58;96477.22;5095356;28;19968;-72
2022/06/15 08:29:47;;;;;;;;;;;;;;;24.94;40.71;96470.34;5094970;28;19975;-72
2022/06/15 08:32:17;;;;;;;;;;;;;;;25.10;41.57;96480.34;5066874;28;19991;-72
2022/06/15 08:34:43;;;;;;;;;;;;;;;25.26;40.96;96470.03;5095332;28;20309;-72
2022/06/15 08:37:11;;;;;;;;;;;;;;;25.33;41.05;96474.94;5095110;28;19974;-72
2022/06/15 08:39:37;;;;;;;;;;;;;;;25.37;40.30;96470.53;5094871;28;19951;-73
2022/06/15 08:42:03;;;;;;;;;;;;;;;25.37;39.77;96472.41;5095020;28;20324;-73
2022/06/15 08:44:32;;;;;;;;;;;;;;;25.34;40.89;96473.03;5094382;28;19983;-73
2022/06/15 08:47:16;;;;;;;;;;;;;;;25.46;40.67;96476.69;5094742;28;19957;-72
2022/06/15 08:49:49;;;;;;;;;;;;;;;25.58;40.34;96476.09;5094796;28;19966;-72
2022/06/15 08:52:17;;;;;;;;;;;;;;;25.68;40.37;96473.09;5094680;28;19969;-72
2022/06/15 08:54:43;;;;;;;;;;;;;;;25.72;39.69;96474.03;5094863;28;19973;-72
2022/06/15 08:57:42;;;;;;;;;;;;;;;25.70;39.50;96481.63;5081905;28;19958;-72
2022/06/15 09:00:15;;;;;;;;;;;;;;;25.81;40.07;96476.75;5094545;28;19967;-73
2022/06/15 09:02:59;;;;;;;;;;;;;;;25.88;39.70;96477.03;5076897;28;20350;-72
2022/06/15 09:05:25;;;;;;;;;;;;;;;25.95;40.60;96490.03;5094501;28;19958;-73
2022/06/15 09:08:10;;;;;;;;;;;;;;;26.04;40.03;96487.34;5093814;28;19995;-73
2022/06/15 09:10:48;;;;;;;;;;;;;;;26.04;39.77;96485.47;5085907;28;19958;-73
2022/06/15 09:13:33;;;;;;;;;;;;;;;26.05;38.64;96475.50;5094466;28;19960;-73
2022/06/15 09:15:59;;;;;;;;;;;;;;;26.16;38.55;96478.66;5085378;28;19979;-72
2022/06/15 09:18:29;;;;;;;;;;;;;;;26.32;40.03;96485.91;5094446;28;20384;-73
2022/06/15 09:21:01;;;;;;;;;;;;;;;26.54;39.63;96486.81;5094498;28;19951;-72
2022/06/15 09:23:41;;;;;;;;;;;;;;;26.55;38.33;96480.31;5093298;28;19955;-73
2022/06/15 09:26:33;;;;;;;;;;;;;;;26.50;39.00;96483.97;5094667;28;20378;-73
2022/06/15 09:29:13;;;;;;;;;;;;;;;26.52;38.92;96486.31;5050842;28;19964;-73
2022/06/15 09:31:42;;;;;;;;;;;;;;;26.67;39.05;96485.09;5040581;28;19984;-73
2022/06/15 09:34:10;;;;;;;;;;;;;;;26.60;37.65;96477.47;5094140;28;19968;-73
2022/06/15 09:36:42;;;;;;;;;;;;;;;26.69;38.63;96482.84;5093223;28;19966;-73
2022/06/15 09:39:08;;;;;;;;;;;;;;;26.70;38.93;96482.53;5094410;28;19964;-72
2022/06/15 09:41:44;;;;;;;;;;;;;;;26.78;38.16;96478.22;5094012;28;19959;-73
2022/06/15 09:44:12;;;;;;;;;;;;;;;26.96;38.65;96483.53;5093989;28;19965;-72
2022/06/15 09:46:43;;;;;;;;;;;;;;;27.11;38.22;96478.41;5094378;28;20307;-73
2022/06/15 09:49:12;;;;;;;;;;;;;;;27.13;35.82;96467.31;5093677;28;19973;-73
2022/06/15 09:51:44;;;;;;;;;;;;;;;27.17;37.54;96475.53;5094420;28;19981;-72
2022/06/15 09:54:28;;;;;;;;;;;;;;;27.24;34.95;96462.41;5075738;28;19984;-72
2022/06/15 09:56:55;;;;;;;;;;;;;;;27.28;37.12;96466.78;5093594;28;19956;-72
2022/06/15 09:59:21;;;;;;;;;;;;;;;27.37;38.15;96471.34;5075766;28;19964;-72
2022/06/15 10:01:48;;;;;;;;;;;;;;;27.46;35.47;96458.59;5093771;28;19960;-72
2022/06/15 10:04:19;;;;;;;;;;;;;;;27.54;36.51;96465.84;5093666;28;19972;-72
2022/06/15 10:07:06;;;;;;;;;;;;;;;27.66;35.99;96457.84;5094093;28;19953;-72
2022/06/15 10:09:36;;;;;;;;;;;;;;;27.89;37.45;96468.31;5081111;28;19970;-72
2022/06/15 10:15:07;;;;;;;;;;;;;;;28.24;35.00;96459.91;5093644;28;19959;-72
2022/06/15 10:17:38;;;;;;;;;;;;;;;28.17;34.99;96462.38;5093639;28;19962;-72
2022/06/15 10:20:04;;;;;;;;;;;;;;;28.23;35.40;96463.75;5093516;28;19966;-72
2022/06/15 10:22:32;;;;;;;;;;;;;;;28.41;36.24;96470.56;5094016;28;19967;-72
2022/06/15 10:24:59;;;;;;;;;;;;;;;28.62;35.61;96469.72;5093679;28;19970;-72
2022/06/15 10:27:28;;;;;;;;;;;;;;;28.81;34.94;96451.09;5093533;28;19963;-72
2022/06/15 10:29:57;;;;;;;;;;;;;;;28.86;32.78;96458.19;5093347;28;19968;-72
2022/06/15 10:32:23;;;;;;;;;;;;;;;28.86;34.34;96461.66;5093425;28;19986;-72
2022/06/15 10:35:24;;;;;;;;;;;;;;;29.03;33.48;96463.34;5093360;28;20024;-73
2022/06/15 10:38:16;;;;;;;;;;;;;;;29.08;32.46;96465.84;5051391;28;19981;-73
2022/06/15 10:40:50;;;;;;;;;;;;;;;29.13;33.48;96462.16;5091614;28;20409;-72
2022/06/15 10:43:20;;;;;;;;;;;;;;;29.32;34.40;96456.19;5093220;28;19957;-72
2022/06/15 10:46:05;;;;;;;;;;;;;;;29.48;33.19;96448.97;5093688;28;20398;-72
2022/06/15 10:48:52;;;;;;;;;;;;;;;29.66;33.67;96448.69;5093191;28;19978;-73
2022/06/15 10:51:30;;;;;;;;;;;;;;;29.90;33.41;96450.53;5093112;28;19968;-72
2022/06/15 10:54:17;;;;;;;;;;;;;;;30.04;32.77;96445.53;5093096;28;19970;-73
2022/06/15 11:02:22;;;;;;;;;;;;;;;29.98;29.76;96430.69;5093110;28;19991;-72
2022/06/15 11:05:06;;;;;;;;;;;;;;;29.91;30.15;96428.56;5090896;28;19954;-72
2022/06/15 11:08:01;;;;;;;;;;;;;;;29.98;30.95;96429.91;5092265;28;19964;-73
2022/06/15 11:10:32;;;;;;;;;;;;;;;30.07;32.43;96436.75;5084361;28;19985;-72
2022/06/15 11:13:00;;;;;;;;;;;;;;;30.14;31.98;96436.94;5077467;28;19965;-72
2022/06/15 11:18:26;;;;;;;;;;;;;;;30.51;32.67;96436.78;5084378;28;19969;-73
2022/06/15 11:20:58;;;;;;;;;;;;;;;30.71;27.92;96417.91;5095207;28;19953;-73
2022/06/15 11:23:33;;;;;;;;;;;;;;;30.75;29.65;96427.69;5085585;28;19965;-72
2022/06/15 11:26:52;;;;;;;;;;;;;;;30.81;31.95;96435.56;5096619;28;20338;-73
2022/06/15 11:29:01;;;;;;;;;;;;;;;30.88;31.04;96430.34;5095589;28;19973;-72
2022/06/15 11:31:28;;;;;;;;;;;;;;;31.03;31.96;96434.16;5096444;28;19987;-72
2022/06/15 11:34:09;;;;;;;;;;;;;;;31.05;30.30;96421.06;5095014;28;19963;-73
2022/06/15 11:36:42;;;;;;;;;;;;;;;31.13;29.86;96417.38;5096280;28;19964;-73
2022/06/15 11:39:15;;;;;;;;;;;;;;;31.23;31.88;96419.56;5096260;28;19963;-73
2022/06/15 11:41:44;;;;;;;;;;;;;;;31.22;30.38;96420.66;5096166;28;19956;-72
2022/06/15 11:44:16;;;;;;;;;;;;;;;31.26;29.91;96421.53;5096125;28;19956;-73
2022/06/15 11:47:20;;;;;;;;;;;;;;;31.32;30.46;96416.63;5014106;28;19959;-72
2022/06/15 11:50:01;;;;;;;;;;;;;;;31.41;30.67;96421.84;5014106;28;19979;-72
2022/06/15 11:52:48;;;;;;;;;;;;;;;31.50;30.41;96417.84;5014332;28;19962;-73
2022/06/15 11:55:32;;;;;;;;;;;;;;;31.64;29.45;96406.50;5014389;28;19958;-73
2022/06/15 11:58:04;;;;;;;;;;;;;;;31.67;29.38;96405.81;5027654;28;19961;-72
2022/06/15 12:00:41;;;;;;;;;;;;;;;31.70;28.54;96404.28;5096058;28;19965;-73
2022/06/15 12:03:26;;;;;;;;;;;;;;;31.82;30.66;96411.50;5096116;28;19968;-73
2022/06/15 12:05:57;;;;;;;;;;;;;;;31.92;27.55;96406.28;5095648;28;19951;-73
2022/06/15 12:08:30;;;;;;;;;;;;;;;31.94;29.62;96417.56;5095517;28;19955;-72
2022/06/15 12:10:56;;;;;;;;;;;;;;;31.94;26.97;96405.91;5095776;28;19951;-73
2022/06/15 12:13:42;;;;;;;;;;;;;;;31.80;27.98;96409.16;5095497;28;20023;-72
2022/06/15 12:16:11;;;;;;;;;;;;;;;31.77;28.95;96412.56;5094947;28;19956;-72
2022/06/15 12:18:56;;;;;;;;;;;;;;;31.70;27.71;96417.84;5095882;28;19962;-72
2022/06/15 12:21:22;;;;;;;;;;;;;;;31.41;27.63;96413.72;5095622;28;20037;-73
2022/06/15 12:23:56;;;;;;;;;;;;;;;31.27;28.47;96417.72;5095474;28;20414;-73
2022/06/15 12:26:26;;;;;;;;;;;;;;;31.13;27.98;96417.38;5094016;28;19959;-73
2022/06/15 12:28:57;;;;;;;;;;;;;;;31.03;29.33;96415.22;5095516;28;20335;-73
2022/06/15 12:31:32;;;;;;;;;;;;;;;31.21;29.38;96423.75;5094246;28;19980;-73
2022/06/15 12:34:04;;;;;;;;;;;;;;;31.35;29.06;96416.72;5095669;28;20324;-73
2022/06/15 12:36:47;;;;;;;;;;;;;;;31.54;30.03;96423.31;5095109;28;20410;-73
2022/06/15 12:39:31;;;;;;;;;;;;;;;31.48;29.51;96422.84;5094946;28;19959;-73
2022/06/15 12:42:12;;;;;;;;;;;;;;;31.26;29.66;96409.91;5095199;28;19962;-73
2022/06/15 12:44:57;;;;;;;;;;;;;;;31.23;29.21;96416.06;5095048;28;19959;-73
2022/06/15 12:47:24;;;;;;;;;;;;;;;31.34;28.85;96408.94;5076215;28;19991;-73
2022/06/15 12:50:09;;;;;;;;;;;;;;;31.34;27.58;96406.22;5094776;28;19991;-73
2022/06/15 12:52:43;;;;;;;;;;;;;;;31.13;29.08;96407.31;5094962;28;19958;-73
2022/06/15 12:55:15;;;;;;;;;;;;;;;31.01;29.00;96410.13;5093822;28;19964;-73
2022/06/15 12:57:48;;;;;;;;;;;;;;;31.09;29.84;96411.88;5076797;28;19964;-73
2022/06/15 13:00:25;;;;;;;;;;;;;;;31.17;29.50;96407.41;5076851;28;19960;-73
2022/06/15 13:03:14;;;;;;;;;;;;;;;31.28;29.42;96411.13;5094636;28;19965;-73
2022/06/15 13:05:40;;;;;;;;;;;;;;;31.44;28.77;96407.66;5081925;28;19957;-73
2022/06/15 13:08:32;;;;;;;;;;;;;;;31.43;29.38;96416.88;5052120;28;20334;-73
2022/06/15 13:10:58;;;;;;;;;;;;;;;31.42;29.12;96410.66;5035017;28;19966;-73
2022/06/15 13:13:45;;;;;;;;;;;;;;;31.49;29.17;96410.06;5052302;28;20370;-73
2022/06/15 13:16:14;;;;;;;;;;;;;;;31.53;27.83;96403.56;5052170;28;19960;-73
2022/06/15 13:18:46;;;;;;;;;;;;;;;31.45;29.25;96399.13;5051785;28;19953;-73
2022/06/15 13:21:13;;;;;;;;;;;;;;;31.46;28.41;96414.28;5051991;28;20062;-73
2022/06/15 13:23:45;;;;;;;;;;;;;;;31.61;28.17;96398.31;5052293;28;19967;-73
2022/06/15 13:26:13;;;;;;;;;;;;;;;31.73;27.89;96398.94;5051822;28;19954;-73